Time;durP1;ratioP1;P1;durP2;ratioP2;P2;SDS_P1;SDS_P2;PMS_P1;PMS_P2;Temp;Humidity;BMP_temperature;BMP_pressure;BME280_temperature;BME280_humidity;BME280_pressure;Samples;Min_cycle;Max_cycle;Signal;HPM_P1;HPM_P2
2023/07/30 00:02:18;;;;;;;16.10;14.90;;;15.50;99.90;;;;;;5039966;28;20181;-43
2023/07/30 00:04:44;;;;;;;16.03;14.57;;;15.50;99.90;;;;;;5040068;28;20452;-42
2023/07/30 00:07:11;;;;;;;15.70;14.63;;;15.50;99.90;;;;;;5039975;28;20808;-41
2023/07/30 00:09:36;;;;;;;15.70;14.70;;;15.50;99.90;;;;;;5037985;28;20444;-43
2023/07/30 00:12:03;;;;;;;15.40;13.93;;;15.50;99.90;;;;;;5039989;28;20454;-41
2023/07/30 00:14:29;;;;;;;14.90;13.80;;;15.50;99.90;;;;;;5039848;28;21302;-40
2023/07/30 00:16:54;;;;;;;15.00;14.03;;;15.50;99.90;;;;;;5039969;28;20459;-43
2023/07/30 00:19:20;;;;;;;14.53;13.53;;;15.50;99.90;;;;;;5037265;28;20182;-43
2023/07/30 00:21:46;;;;;;;15.07;13.87;;;15.40;99.90;;;;;;5039791;28;20730;-42
2023/07/30 00:24:13;;;;;;;14.80;13.80;;;15.40;99.90;;;;;;5039174;28;20249;-44
2023/07/30 00:26:39;;;;;;;15.30;14.20;;;15.40;99.90;;;;;;5039632;28;20472;-40
2023/07/30 00:29:04;;;;;;;15.00;13.93;;;15.30;99.90;;;;;;5038258;28;20527;-40
2023/07/30 00:31:30;;;;;;;15.67;14.37;;;15.40;99.90;;;;;;5039882;28;20194;-41
2023/07/30 00:33:55;;;;;;;14.77;13.67;;;15.30;99.90;;;;;;5039617;28;20664;-41
2023/07/30 00:36:21;;;;;;;15.10;14.00;;;15.30;99.90;;;;;;5039789;28;20196;-42
2023/07/30 00:38:47;;;;;;;14.80;13.90;;;15.30;99.90;;;;;;5039493;28;21317;-42
2023/07/30 00:41:12;;;;;;;15.20;14.10;;;15.30;99.90;;;;;;5038229;28;20189;-43
2023/07/30 00:43:38;;;;;;;15.13;14.13;;;15.30;99.90;;;;;;5039056;28;20193;-43
2023/07/30 00:46:03;;;;;;;15.13;14.00;;;15.30;99.90;;;;;;5020602;28;20189;-41
2023/07/30 00:48:30;;;;;;;14.33;13.33;;;15.30;99.90;;;;;;5039573;28;20213;-42
2023/07/30 00:50:56;;;;;;;14.50;13.60;;;15.30;99.90;;;;;;5038929;28;20201;-42
2023/07/30 00:53:23;;;;;;;14.90;13.90;;;15.30;99.90;;;;;;5038419;28;20810;-48
2023/07/30 00:55:49;;;;;;;16.03;14.67;;;15.30;99.90;;;;;;5037864;28;20443;-52
2023/07/30 00:58:15;;;;;;;14.60;13.70;;;15.30;99.90;;;;;;5039402;28;20468;-47
2023/07/30 01:00:41;;;;;;;14.27;13.27;;;15.30;99.90;;;;;;5039027;28;20181;-50
2023/07/30 01:03:07;;;;;;;15.23;14.03;;;15.30;99.90;;;;;;5036331;28;20866;-52
2023/07/30 01:05:33;;;;;;;15.07;13.93;;;15.30;99.90;;;;;;5038327;28;20439;-48
2023/07/30 01:07:59;;;;;;;14.90;13.80;;;15.30;99.90;;;;;;5038897;28;20235;-48
2023/07/30 01:10:25;;;;;;;15.17;13.93;;;15.30;99.90;;;;;;5038279;28;20436;-49
2023/07/30 01:12:52;;;;;;;14.53;13.53;;;15.30;99.90;;;;;;5039555;28;20676;-48
2023/07/30 01:15:18;;;;;;;14.50;13.47;;;15.20;99.90;;;;;;5039195;28;20511;-51
2023/07/30 01:17:44;;;;;;;14.10;13.10;;;15.20;99.90;;;;;;5037984;28;20468;-54
2023/07/30 01:20:10;;;;;;;14.30;13.30;;;15.20;99.90;;;;;;5038321;28;20436;-48
2023/07/30 01:22:36;;;;;;;13.43;12.60;;;15.30;99.90;;;;;;5038836;28;20440;-49
2023/07/30 01:25:02;;;;;;;13.53;12.53;;;15.20;99.90;;;;;;5039015;28;21167;-47
2023/07/30 01:27:36;;;;;;;14.20;13.10;;;15.20;99.90;;;;;;5039684;28;20186;-49
2023/07/30 01:30:02;;;;;;;14.93;13.93;;;15.20;99.90;;;;;;5037882;28;20489;-45
2023/07/30 01:32:29;;;;;;;14.73;13.63;;;15.20;99.90;;;;;;5039584;28;20417;-50
2023/07/30 01:34:57;;;;;;;14.50;13.40;;;15.20;99.90;;;;;;5037567;28;20186;-47
2023/07/30 01:37:23;;;;;;;15.27;14.20;;;15.20;99.90;;;;;;5038850;28;20456;-45
2023/07/30 01:39:49;;;;;;;13.93;13.13;;;15.20;99.90;;;;;;5037676;28;20428;-47
2023/07/30 01:42:15;;;;;;;14.30;13.30;;;15.20;99.90;;;;;;5039143;28;20448;-52
2023/07/30 01:44:41;;;;;;;13.97;13.10;;;15.20;99.90;;;;;;5036556;28;20813;-47
2023/07/30 01:47:07;;;;;;;14.03;13.00;;;15.20;99.90;;;;;;5038967;28;20483;-49
2023/07/30 01:49:33;;;;;;;14.00;13.10;;;15.20;99.90;;;;;;5037886;28;20436;-46
2023/07/30 01:51:59;;;;;;;13.90;13.03;;;15.20;99.90;;;;;;5037826;28;20350;-49
2023/07/30 01:54:24;;;;;;;13.23;12.33;;;15.10;99.90;;;;;;5020945;28;20471;-49
2023/07/30 01:56:50;;;;;;;13.27;12.43;;;15.10;99.90;;;;;;5038108;28;20864;-47
2023/07/30 01:59:16;;;;;;;12.70;12.00;;;15.10;99.90;;;;;;5041317;28;20490;-49
2023/07/30 02:01:43;;;;;;;13.00;12.10;;;15.10;99.90;;;;;;5042543;28;20730;-50
2023/07/30 02:04:08;;;;;;;12.80;11.90;;;15.10;99.90;;;;;;5041686;28;20247;-50
2023/07/30 02:06:34;;;;;;;13.43;12.47;;;15.20;99.90;;;;;;5024585;28;20416;-49
2023/07/30 02:09:29;;;;;;;12.97;12.23;;;15.20;99.90;;;;;;5039970;28;20754;-50
2023/07/30 02:11:59;;;;;;;13.03;12.13;;;15.20;99.90;;;;;;5040039;28;20197;-54
2023/07/30 02:14:25;;;;;;;11.80;11.10;;;15.20;99.90;;;;;;5041377;28;20664;-49
2023/07/30 02:16:51;;;;;;;12.87;12.07;;;15.30;99.90;;;;;;5042249;28;20460;-51
2023/07/30 02:19:16;;;;;;;12.83;12.03;;;15.30;99.90;;;;;;5040899;28;20482;-51
2023/07/30 02:21:42;;;;;;;12.73;11.93;;;15.30;99.90;;;;;;5040609;28;20817;-51
2023/07/30 02:24:11;;;;;;;12.40;11.70;;;15.30;99.90;;;;;;5040932;28;20733;-50
2023/07/30 02:26:37;;;;;;;13.70;12.80;;;15.40;99.90;;;;;;5042111;28;20832;-47
2023/07/30 02:29:03;;;;;;;13.57;12.77;;;15.40;99.90;;;;;;5041778;28;20515;-53
2023/07/30 02:31:29;;;;;;;13.67;12.70;;;15.40;99.90;;;;;;5041886;28;20946;-49
2023/07/30 02:33:54;;;;;;;12.87;12.07;;;15.40;99.90;;;;;;5040599;28;20192;-43
2023/07/30 02:36:20;;;;;;;12.87;12.07;;;15.40;99.90;;;;;;5041834;28;20185;-39
2023/07/30 02:38:45;;;;;;;13.50;12.70;;;15.40;99.90;;;;;;5041715;28;20201;-44
2023/07/30 02:41:11;;;;;;;13.93;13.03;;;15.40;99.90;;;;;;5041654;28;20217;-41
2023/07/30 02:43:36;;;;;;;13.40;12.60;;;15.40;99.90;;;;;;5041694;28;20181;-41
2023/07/30 02:46:02;;;;;;;14.10;13.20;;;15.40;99.90;;;;;;5041175;28;20199;-43
2023/07/30 02:48:27;;;;;;;13.90;13.00;;;15.40;99.90;;;;;;5041568;28;20718;-40
2023/07/30 02:50:53;;;;;;;13.97;13.07;;;15.40;99.90;;;;;;5040205;28;20185;-43
2023/07/30 02:53:18;;;;;;;15.07;14.07;;;15.40;99.90;;;;;;5055873;28;20190;-42
2023/07/30 02:55:44;;;;;;;15.03;14.03;;;15.40;99.90;;;;;;5040039;28;20181;-45
2023/07/30 02:58:10;;;;;;;14.30;13.40;;;15.50;99.90;;;;;;5041453;28;20228;-40
2023/07/30 03:00:36;;;;;;;14.60;13.60;;;15.50;99.90;;;;;;5039616;28;20186;-44
2023/07/30 03:03:03;;;;;;;14.57;13.57;;;15.50;99.90;;;;;;5041052;28;20965;-41
2023/07/30 03:05:28;;;;;;;14.30;13.40;;;15.50;99.90;;;;;;5040264;28;20454;-41
2023/07/30 03:07:54;;;;;;;13.53;12.63;;;15.50;99.90;;;;;;5040387;28;20432;-40
2023/07/30 03:10:20;;;;;;;14.63;13.63;;;15.50;99.90;;;;;;5041228;28;20184;-40
2023/07/30 03:12:45;;;;;;;14.47;13.53;;;15.50;99.90;;;;;;5039743;28;20186;-42
2023/07/30 03:15:11;;;;;;;14.20;13.20;;;15.50;99.90;;;;;;5040485;28;20775;-49
2023/07/30 03:17:37;;;;;;;14.80;13.70;;;15.50;99.90;;;;;;5041151;28;20228;-47
2023/07/30 03:20:04;;;;;;;14.57;13.27;;;15.60;99.90;;;;;;5039607;28;20457;-46
2023/07/30 03:22:29;;;;;;;14.17;13.37;;;15.60;99.90;;;;;;5041307;28;20424;-51
2023/07/30 03:24:55;;;;;;;14.30;13.27;;;15.70;99.90;;;;;;5039343;28;21272;-48
2023/07/30 03:27:21;;;;;;;14.80;13.87;;;15.70;99.90;;;;;;5040784;28;20178;-51
2023/07/30 03:29:46;;;;;;;14.20;13.30;;;15.80;99.90;;;;;;5041440;28;20223;-51
2023/07/30 03:32:12;;;;;;;13.93;13.13;;;15.80;99.90;;;;;;5040795;28;20194;-47
2023/07/30 03:34:37;;;;;;;14.03;13.23;;;15.80;99.90;;;;;;5040089;28;20265;-51
2023/07/30 03:37:03;;;;;;;14.30;13.07;;;15.80;99.90;;;;;;5040784;28;20296;-52
2023/07/30 03:39:29;;;;;;;13.97;13.17;;;15.80;99.90;;;;;;5022729;28;20185;-48
2023/07/30 03:41:54;;;;;;;14.17;13.37;;;15.80;99.90;;;;;;5039298;28;20216;-48
2023/07/30 03:44:20;;;;;;;13.87;12.87;;;15.90;99.90;;;;;;5039906;28;20559;-48
2023/07/30 03:46:46;;;;;;;14.07;13.20;;;15.90;99.90;;;;;;5040109;28;20194;-45
2023/07/30 03:49:11;;;;;;;13.00;12.20;;;15.90;99.90;;;;;;5039613;28;20255;-48
2023/07/30 03:51:38;;;;;;;13.50;12.60;;;15.90;99.90;;;;;;5039711;28;20929;-50
2023/07/30 03:54:04;;;;;;;13.80;13.00;;;15.90;99.90;;;;;;5039711;28;20184;-49
2023/07/30 03:56:30;;;;;;;14.73;13.57;;;16.00;99.90;;;;;;5038900;28;20432;-51
2023/07/30 03:58:55;;;;;;;13.80;12.90;;;15.90;99.90;;;;;;5040529;28;20460;-48
2023/07/30 04:01:21;;;;;;;15.00;13.37;;;15.90;99.90;;;;;;5021753;28;20272;-50
2023/07/30 04:03:47;;;;;;;13.40;12.60;;;16.00;99.90;;;;;;5040159;28;20232;-50
2023/07/30 04:06:12;;;;;;;13.60;12.70;;;16.00;99.90;;;;;;5039063;28;20239;-45
2023/07/30 04:08:38;;;;;;;13.03;12.23;;;16.00;99.90;;;;;;5040344;28;20458;-49
2023/07/30 04:11:04;;;;;;;13.27;12.47;;;16.10;99.90;;;;;;5022691;28;20182;-52
2023/07/30 04:13:29;;;;;;;12.73;11.93;;;16.10;99.90;;;;;;5038757;28;20190;-50
2023/07/30 04:15:55;;;;;;;12.83;12.13;;;16.20;99.90;;;;;;5039549;28;20238;-51
2023/07/30 04:18:22;;;;;;;13.43;12.47;;;16.20;99.90;;;;;;5039110;28;20197;-45
2023/07/30 04:20:48;;;;;;;13.30;12.43;;;16.20;99.90;;;;;;5031912;28;20438;-48
2023/07/30 04:23:14;;;;;;;13.70;12.80;;;16.20;99.90;;;;;;5039062;28;20465;-47
2023/07/30 04:25:39;;;;;;;13.40;12.60;;;16.30;99.90;;;;;;5053281;28;20436;-44
2023/07/30 04:28:05;;;;;;;13.47;12.63;;;16.30;99.90;;;;;;5039913;28;20187;-52
2023/07/30 04:30:32;;;;;;;13.83;13.00;;;16.30;99.90;;;;;;5036863;28;20189;-45
2023/07/30 04:32:57;;;;;;;13.90;13.10;;;16.40;99.90;;;;;;5039587;28;20192;-46
2023/07/30 04:35:23;;;;;;;13.00;12.20;;;16.50;99.90;;;;;;5039905;28;20409;-46
2023/07/30 04:37:49;;;;;;;14.60;13.60;;;16.40;99.90;;;;;;5039436;28;20209;-47
2023/07/30 04:40:14;;;;;;;14.70;13.80;;;16.50;99.90;;;;;;5037383;28;20192;-49
2023/07/30 04:42:40;;;;;;;14.00;13.10;;;16.50;99.90;;;;;;5038228;28;20555;-48
2023/07/30 04:45:06;;;;;;;14.10;13.10;;;16.40;99.90;;;;;;5039331;28;20182;-48
2023/07/30 04:47:31;;;;;;;14.03;13.03;;;16.40;99.90;;;;;;5038022;28;20653;-48
2023/07/30 04:49:57;;;;;;;13.20;12.40;;;16.40;99.90;;;;;;5038333;28;20478;-49
2023/07/30 04:52:23;;;;;;;13.53;12.63;;;16.40;99.90;;;;;;5039369;28;20177;-49
2023/07/30 04:54:48;;;;;;;14.30;13.20;;;16.40;99.90;;;;;;5039045;28;20181;-49
2023/07/30 04:57:14;;;;;;;14.33;13.13;;;16.30;99.90;;;;;;5039295;28;20213;-50
2023/07/30 04:59:39;;;;;;;13.67;12.67;;;16.30;99.90;;;;;;5037312;28;20296;-50
2023/07/30 05:02:05;;;;;;;14.57;13.57;;;16.30;99.90;;;;;;5038192;28;20186;-50
2023/07/30 05:04:31;;;;;;;14.30;13.20;;;16.30;99.90;;;;;;5038050;28;20545;-47
2023/07/30 05:06:56;;;;;;;14.50;13.50;;;16.30;99.90;;;;;;5039033;28;20490;-51
2023/07/30 05:09:22;;;;;;;14.70;13.40;;;16.20;99.90;;;;;;5037756;28;20189;-46
2023/07/30 05:11:47;;;;;;;14.00;13.10;;;16.30;99.90;;;;;;5038521;28;20188;-54
2023/07/30 05:14:13;;;;;;;14.40;13.40;;;16.30;99.90;;;;;;5038480;28;20198;-48
2023/07/30 05:16:39;;;;;;;12.83;11.93;;;16.30;99.90;;;;;;5039089;28;20186;-51
2023/07/30 05:19:05;;;;;;;13.90;12.90;;;16.40;99.90;;;;;;5038911;28;20225;-49
2023/07/30 05:21:30;;;;;;;13.30;12.40;;;16.40;99.90;;;;;;5038863;28;20277;-48
2023/07/30 05:23:56;;;;;;;14.30;13.10;;;16.50;99.90;;;;;;5036173;28;20237;-51
2023/07/30 05:26:21;;;;;;;14.10;13.07;;;16.60;99.90;;;;;;5037578;28;20186;-52
2023/07/30 05:28:47;;;;;;;14.00;13.00;;;16.60;99.90;;;;;;5038801;28;20186;-49
2023/07/30 05:31:12;;;;;;;13.10;12.07;;;16.70;99.90;;;;;;5038926;28;20598;-49
2023/07/30 05:33:38;;;;;;;13.00;12.20;;;16.80;99.90;;;;;;5041906;28;20189;-50
2023/07/30 05:36:04;;;;;;;14.60;13.60;;;16.90;99.90;;;;;;5042719;28;20178;-50
2023/07/30 05:38:29;;;;;;;13.83;12.83;;;17.00;99.90;;;;;;5041851;28;20209;-51
2023/07/30 05:40:55;;;;;;;14.40;13.50;;;17.10;99.90;;;;;;5041790;28;20653;-48
2023/07/30 05:43:21;;;;;;;13.90;13.10;;;17.10;99.90;;;;;;5042576;28;20707;-50
2023/07/30 05:45:46;;;;;;;13.43;12.63;;;17.10;99.90;;;;;;5041992;28;20181;-50
2023/07/30 05:48:12;;;;;;;13.50;12.70;;;17.30;99.90;;;;;;5043101;28;20648;-48
2023/07/30 05:50:37;;;;;;;13.83;12.93;;;17.30;99.90;;;;;;5022962;28;20285;-49
2023/07/30 05:53:03;;;;;;;14.17;13.23;;;17.40;99.90;;;;;;5042883;28;20182;-51
2023/07/30 05:55:29;;;;;;;13.50;12.70;;;17.50;99.90;;;;;;5039983;28;20521;-49
2023/07/30 05:57:55;;;;;;;12.97;12.27;;;17.60;99.90;;;;;;5042545;28;20201;-49
2023/07/30 06:00:20;;;;;;;13.23;12.53;;;17.70;99.90;;;;;;5042832;28;20186;-46
2023/07/30 06:02:46;;;;;;;14.10;13.20;;;17.80;99.90;;;;;;5042973;28;20404;-51
2023/07/30 06:05:12;;;;;;;13.97;13.10;;;18.00;99.90;;;;;;5041625;28;20192;-51
2023/07/30 06:07:37;;;;;;;13.27;12.50;;;18.00;99.90;;;;;;5041316;28;20950;-53
2023/07/30 06:10:03;;;;;;;13.40;12.70;;;18.10;99.90;;;;;;5037750;28;20571;-51
2023/07/30 06:12:29;;;;;;;13.93;13.03;;;18.20;99.90;;;;;;5040915;28;20193;-49
2023/07/30 06:14:55;;;;;;;12.97;12.17;;;18.30;99.90;;;;;;5040639;28;20493;-50
2023/07/30 06:17:20;;;;;;;14.07;13.07;;;18.40;99.90;;;;;;5042264;28;20201;-50
2023/07/30 06:19:46;;;;;;;13.10;12.40;;;18.50;99.90;;;;;;5040480;28;20334;-47
2023/07/30 06:22:11;;;;;;;14.10;13.40;;;18.70;99.90;;;;;;5023866;28;20292;-51
2023/07/30 06:24:37;;;;;;;14.00;13.30;;;18.70;99.90;;;;;;5004590;28;20227;-54
2023/07/30 06:27:03;;;;;;;14.67;13.70;;;18.80;99.90;;;;;;4999258;28;20999;-50
2023/07/30 06:29:28;;;;;;;12.90;12.30;;;18.80;99.90;;;;;;4999020;28;20182;-53
2023/07/30 06:31:54;;;;;;;14.30;13.50;;;18.90;99.90;;;;;;5001230;28;20448;-46
2023/07/30 06:34:20;;;;;;;13.60;12.80;;;19.10;99.90;;;;;;5001327;28;20737;-51
2023/07/30 06:36:45;;;;;;;13.50;12.77;;;19.30;99.90;;;;;;5001038;28;20230;-49
2023/07/30 06:39:11;;;;;;;14.03;13.33;;;19.40;99.90;;;;;;5000855;28;20187;-54
2023/07/30 06:41:36;;;;;;;13.47;12.73;;;19.30;99.90;;;;;;5001768;28;20190;-50
2023/07/30 06:44:02;;;;;;;13.43;12.73;;;19.40;97.90;;;;;;4999492;28;20705;-48
2023/07/30 06:46:28;;;;;;;13.13;12.33;;;19.50;98.10;;;;;;5001539;28;20298;-48
2023/07/30 06:48:53;;;;;;;13.10;12.40;;;19.50;96.60;;;;;;5000087;28;20508;-51
2023/07/30 06:51:20;;;;;;;13.67;12.87;;;19.50;86.00;;;;;;4999843;28;20213;-52
2023/07/30 06:53:45;;;;;;;13.57;12.87;;;19.40;97.20;;;;;;5001225;28;20241;-45
2023/07/30 06:56:11;;;;;;;13.23;12.53;;;19.50;96.50;;;;;;4999804;28;20947;-49
2023/07/30 06:58:37;;;;;;;13.83;13.13;;;19.50;94.10;;;;;;5001184;28;20218;-48
2023/07/30 07:01:02;;;;;;;14.17;13.37;;;19.50;93.20;;;;;;4999304;28;20983;-51
2023/07/30 07:03:28;;;;;;;13.60;12.90;;;19.50;83.20;;;;;;4998258;28;20198;-51
2023/07/30 07:05:56;;;;;;;14.10;13.40;;;19.70;97.20;;;;;;4999123;28;20187;-45
2023/07/30 07:08:23;;;;;;;13.37;12.73;;;19.70;75.10;;;;;;4983613;28;20199;-51
2023/07/30 07:10:49;;;;;;;12.45;11.75;;;19.70;73.40;;;;;;4979983;28;20490;-51
2023/07/30 07:13:15;;;;;;;13.90;13.20;;;19.80;71.10;;;;;;4998231;28;20187;-48
2023/07/30 07:15:44;;;;;;;14.23;13.53;;;20.10;57.50;;;;;;4999664;28;20943;-49
2023/07/30 07:18:10;;;;;;;13.80;13.00;;;20.20;51.30;;;;;;5000304;28;20473;-49
2023/07/30 07:20:37;;;;;;;14.00;12.57;;;20.30;30.90;;;;;;5000745;28;20731;-48
2023/07/30 07:23:02;;;;;;;13.37;12.70;;;20.20;29.50;;;;;;4999126;28;20484;-47
2023/07/30 07:25:28;;;;;;;12.93;12.23;;;20.30;28.90;;;;;;5037690;28;20492;-51
2023/07/30 07:27:54;;;;;;;14.00;13.20;;;20.30;31.50;;;;;;5039683;28;20696;-51
2023/07/30 07:30:19;;;;;;;12.87;12.27;;;20.40;27.40;;;;;;5037329;28;20624;-48
2023/07/30 07:32:50;;;;;;;13.20;12.50;;;20.50;27.20;;;;;;5038863;28;20201;-48
2023/07/30 07:35:15;;;;;;;13.13;12.37;;;20.60;22.10;;;;;;5038182;28;20267;-52
2023/07/30 07:37:41;;;;;;;13.10;12.33;;;20.80;17.00;;;;;;5039309;28;21026;-54
2023/07/30 07:40:09;;;;;;;12.50;11.90;;;20.80;13.00;;;;;;5036001;28;20186;-50
2023/07/30 07:42:35;;;;;;;13.90;13.00;;;20.90;10.20;;;;;;5038273;28;20786;-45
2023/07/30 07:45:00;;;;;;;13.83;12.93;;;21.10;3.70;;;;;;5038518;28;20739;-52
2023/07/30 07:47:26;;;;;;;12.67;11.97;;;21.40;1.00;;;;;;5038338;28;20528;-49
2023/07/30 07:49:51;;;;;;;12.83;12.17;;;21.50;1.00;;;;;;5019796;28;20185;-47
2023/07/30 07:52:19;;;;;;;12.73;12.13;;;21.70;1.00;;;;;;5035502;28;21076;-49
2023/07/30 07:54:45;;;;;;;12.90;12.20;;;21.90;1.00;;;;;;5039342;28;20632;-49
2023/07/30 07:57:10;;;;;;;12.60;12.00;;;22.30;1.00;;;;;;5039465;28;20780;-50
2023/07/30 07:59:36;;;;;;;13.20;12.50;;;22.50;1.00;;;;;;5038826;28;20788;-50
2023/07/30 08:02:02;;;;;;;13.53;12.90;;;22.60;1.00;;;;;;5037493;28;20236;-49
2023/07/30 08:04:28;;;;;;;12.43;11.83;;;22.70;1.00;;;;;;5037219;28;20186;-51
2023/07/30 08:06:53;;;;;;;12.00;11.50;;;22.90;1.00;;;;;;5038001;28;20248;-51
2023/07/30 08:09:19;;;;;;;13.20;12.60;;;23.20;1.00;;;;;;5035328;28;20566;-45
2023/07/30 08:11:44;;;;;;;13.27;12.57;;;23.40;1.00;;;;;;5038903;28;20189;-46
2023/07/30 08:14:10;;;;;;;13.30;12.60;;;23.60;1.00;;;;;;5037762;28;20190;-48
2023/07/30 08:16:35;;;;;;;11.37;10.83;;;23.70;1.00;;;;;;5038007;28;20185;-52
2023/07/30 08:19:01;;;;;;;12.60;12.00;;;23.80;1.00;;;;;;5037351;28;20221;-50
2023/07/30 08:21:27;;;;;;;12.57;11.97;;;24.00;1.00;;;;;;5037934;28;20196;-48
2023/07/30 08:23:52;;;;;;;12.93;12.23;;;24.10;1.00;;;;;;5037042;28;20240;-50
2023/07/30 08:26:18;;;;;;;12.90;12.20;;;24.20;99.90;;;;;;5038030;28;20594;-51
2023/07/30 08:28:43;;;;;;;12.50;11.83;;;24.20;99.90;;;;;;5038728;28;20639;-53
2023/07/30 08:31:09;;;;;;;13.33;12.63;;;24.20;99.90;;;;;;5034067;28;20204;-48
2023/07/30 08:33:35;;;;;;;12.20;11.50;;;24.30;1.00;;;;;;5038961;28;20201;-51
2023/07/30 08:36:00;;;;;;;13.03;12.43;;;24.40;1.00;;;;;;5035727;28;20205;-50
2023/07/30 08:38:26;;;;;;;12.80;12.20;;;24.40;99.90;;;;;;5035757;28;20210;-51
2023/07/30 08:40:52;;;;;;;12.63;11.70;;;24.40;99.90;;;;;;5037041;28;20269;-48
2023/07/30 08:43:20;;;;;;;13.17;12.40;;;24.50;99.90;;;;;;5035934;28;20190;-54
2023/07/30 08:45:46;;;;;;;12.93;12.23;;;24.70;99.90;;;;;;5037601;28;20743;-50
2023/07/30 08:48:11;;;;;;;13.63;13.03;;;24.90;99.90;;;;;;5038761;28;20440;-50
2023/07/30 08:50:37;;;;;;;12.63;11.93;;;25.10;99.90;;;;;;5038103;28;20633;-51
2023/07/30 08:53:03;;;;;;;12.97;12.37;;;25.20;99.90;;;;;;5037228;28;20526;-51
2023/07/30 08:55:32;;;;;;;11.33;10.83;;;25.30;99.90;;;;;;5035882;28;20486;-47
2023/07/30 08:58:01;;;;;;;13.47;12.50;;;25.40;99.90;;;;;;5037348;28;20962;-48
2023/07/30 09:00:33;;;;;;;12.20;11.50;;;25.50;99.90;;;;;;5038163;28;20509;-49
2023/07/30 09:03:00;;;;;;;11.10;10.60;;;25.70;99.90;;;;;;5051220;28;20935;-51
2023/07/30 09:05:29;;;;;;;11.30;10.80;;;25.80;99.90;;;;;;5037523;28;21028;-50
2023/07/30 09:07:55;;;;;;;11.67;11.07;;;25.70;98.00;;;;;;5040519;28;20447;-50
2023/07/30 09:10:21;;;;;;;12.40;11.80;;;25.90;96.10;;;;;;5024548;28;20448;-51
2023/07/30 09:12:59;;;;;;;11.90;11.30;;;25.80;97.10;;;;;;5037645;28;20501;-50
2023/07/30 09:15:37;;;;;;;11.77;11.27;;;26.10;96.10;;;;;;5041344;28;20648;-47
2023/07/30 09:18:03;;;;;;;11.10;10.60;;;25.60;96.60;;;;;;5041979;28;21336;-49
2023/07/30 09:20:37;;;;;;;12.83;12.23;;;25.60;97.90;;;;;;5042468;28;21087;-47
2023/07/30 09:23:03;;;;;;;12.33;11.73;;;25.20;99.50;;;;;;5019458;28;20434;-51
2023/07/30 09:25:28;;;;;;;11.20;10.70;;;25.10;99.50;;;;;;5042041;28;20483;-50
2023/07/30 09:27:55;;;;;;;11.40;10.90;;;25.60;98.00;;;;;;5024187;28;20197;-45
2023/07/30 09:30:24;;;;;;;11.80;11.30;;;26.00;95.10;;;;;;5039054;28;21612;-44
2023/07/30 09:32:55;;;;;;;11.57;11.07;;;26.20;92.80;;;;;;5037712;28;20930;-44
2023/07/30 09:35:24;;;;;;;11.40;10.80;;;26.30;90.40;;;;;;5041026;28;20438;-41
2023/07/30 09:37:57;;;;;;;11.23;10.73;;;26.60;91.60;;;;;;5040240;28;20514;-49
2023/07/30 09:40:34;;;;;;;11.07;10.57;;;27.10;90.30;;;;;;5017332;28;20462;-42
2023/07/30 09:43:02;;;;;;;11.77;11.17;;;27.50;89.40;;;;;;5041777;28;20446;-45
2023/07/30 09:45:28;;;;;;;11.53;11.03;;;27.30;90.60;;;;;;5039732;28;20436;-43
2023/07/30 09:47:58;;;;;;;12.30;11.80;;;27.60;90.20;;;;;;5042027;28;20848;-45
2023/07/30 09:50:24;;;;;;;11.30;10.80;;;27.90;82.50;;;;;;5040218;28;20709;-45
2023/07/30 09:52:50;;;;;;;12.40;11.90;;;27.80;81.60;;;;;;5040395;28;20448;-45
2023/07/30 09:55:18;;;;;;;12.20;11.70;;;27.40;80.80;;;;;;5041613;28;20479;-45
2023/07/30 09:57:44;;;;;;;12.50;12.00;;;27.10;86.20;;;;;;5039910;28;20879;-46
2023/07/30 10:00:10;;;;;;;12.10;11.50;;;27.20;86.10;;;;;;5040065;28;20436;-42
2023/07/30 10:02:42;;;;;;;11.23;10.73;;;27.00;86.70;;;;;;5040464;28;20966;-42
2023/07/30 10:05:14;;;;;;;11.80;11.20;;;26.70;89.60;;;;;;5041158;28;20464;-44
2023/07/30 10:07:46;;;;;;;12.63;12.03;;;26.50;92.50;;;;;;5038004;28;20470;-43
2023/07/30 10:10:12;;;;;;;12.80;12.20;;;26.30;91.30;;;;;;5040960;28;20447;-43
2023/07/30 10:12:40;;;;;;;12.07;11.47;;;26.00;91.30;;;;;;5018609;28;20486;-45
2023/07/30 10:15:07;;;;;;;12.27;11.67;;;26.10;93.00;;;;;;5039681;28;20441;-45
2023/07/30 10:17:33;;;;;;;11.90;11.30;;;26.40;92.30;;;;;;5036969;28;20467;-48
2023/07/30 10:20:22;;;;;;;12.40;11.87;;;26.40;90.40;;;;;;5037490;28;20863;-42
2023/07/30 10:22:54;;;;;;;12.27;11.67;;;26.30;90.40;;;;;;5038685;28;20428;-44
2023/07/30 10:25:40;;;;;;;13.20;12.60;;;26.10;91.40;;;;;;5040603;28;20480;-43
2023/07/30 10:28:05;;;;;;;12.93;12.33;;;25.90;94.10;;;;;;5040310;28;20437;-52
2023/07/30 10:30:32;;;;;;;13.60;13.00;;;25.90;93.50;;;;;;5039927;28;20857;-52
2023/07/30 10:33:00;;;;;;;13.90;13.20;;;25.80;93.00;;;;;;5040290;28;20193;-51
2023/07/30 10:35:46;;;;;;;12.90;12.20;;;25.90;93.30;;;;;;5041135;28;20527;-51
2023/07/30 10:38:27;;;;;;;12.70;12.20;;;26.10;92.70;;;;;;5038837;28;20513;-52
2023/07/30 10:41:05;;;;;;;13.80;13.10;;;26.20;92.00;;;;;;5036019;28;20428;-49
2023/07/30 10:43:39;;;;;;;12.43;11.73;;;26.20;90.90;;;;;;5040266;28;20408;-48
2023/07/30 10:46:05;;;;;;;12.07;11.57;;;25.90;91.50;;;;;;5040418;28;20930;-47
2023/07/30 10:48:36;;;;;;;13.03;12.43;;;26.00;91.70;;;;;;5017998;28;20479;-51
2023/07/30 10:51:07;;;;;;;12.50;11.90;;;26.00;92.50;;;;;;5038657;28;21871;-49
2023/07/30 10:53:33;;;;;;;13.30;12.30;;;26.00;91.70;;;;;;5038356;28;20914;-45
2023/07/30 10:56:03;;;;;;;12.23;11.63;;;25.80;91.60;;;;;;5015284;28;20440;-53
2023/07/30 10:58:31;;;;;;;12.10;11.50;;;26.10;93.70;;;;;;5040189;28;20468;-52
2023/07/30 11:00:57;;;;;;;12.63;11.93;;;26.30;92.10;;;;;;5019250;28;20789;-49
2023/07/30 11:03:27;;;;;;;12.10;11.60;;;26.70;90.10;;;;;;5040015;28;20448;-53
2023/07/30 11:05:54;;;;;;;11.87;11.37;;;26.80;85.80;;;;;;5038880;28;21307;-50
2023/07/30 11:08:32;;;;;;;12.40;11.80;;;27.00;83.00;;;;;;5039420;28;20444;-48
2023/07/30 11:10:58;;;;;;;10.87;10.37;;;27.10;83.90;;;;;;5038590;28;20455;-47
2023/07/30 11:13:23;;;;;;;12.33;11.73;;;27.40;81.00;;;;;;5038729;28;20443;-49
2023/07/30 11:15:49;;;;;;;10.97;10.47;;;28.00;73.30;;;;;;5039403;28;20640;-50
2023/07/30 11:18:15;;;;;;;12.47;11.87;;;28.40;69.90;;;;;;5038730;28;20322;-52
2023/07/30 11:20:41;;;;;;;10.93;10.43;;;28.70;67.70;;;;;;5036607;28;20186;-48
2023/07/30 11:23:20;;;;;;;11.33;10.83;;;29.50;66.10;;;;;;5036327;28;20260;-50
2023/07/30 11:25:49;;;;;;;11.10;10.60;;;30.30;59.80;;;;;;5054678;28;20519;-53
2023/07/30 11:28:28;;;;;;;10.90;10.40;;;30.40;52.50;;;;;;5038496;28;20756;-51
2023/07/30 11:30:54;;;;;;;10.73;10.23;;;30.40;51.40;;;;;;5037765;28;20428;-50
2023/07/30 11:33:20;;;;;;;10.70;10.30;;;29.80;50.70;;;;;;5039124;28;20501;-51
2023/07/30 11:35:45;;;;;;;9.57;9.17;;;30.20;53.80;;;;;;5039696;28;20439;-50
2023/07/30 11:38:12;;;;;;;11.50;11.00;;;30.60;51.70;;;;;;5038700;28;20209;-50
2023/07/30 11:40:38;;;;;;;10.30;9.90;;;31.00;50.20;;;;;;5035178;28;20177;-50
2023/07/30 11:43:04;;;;;;;10.67;10.27;;;32.10;49.80;;;;;;5039192;28;20510;-49
2023/07/30 11:45:30;;;;;;;10.80;10.40;;;32.80;44.10;;;;;;5039120;28;20432;-51
2023/07/30 11:48:08;;;;;;;11.30;10.80;;;32.40;39.00;;;;;;5038846;28;20217;-50
2023/07/30 11:50:48;;;;;;;10.47;10.07;;;31.60;37.90;;;;;;5038054;28;20648;-48
2023/07/30 11:53:14;;;;;;;9.70;9.30;;;31.20;38.20;;;;;;5038379;28;20809;-50
2023/07/30 11:55:41;;;;;;;9.50;9.10;;;30.90;38.40;;;;;;5039382;28;20439;-49
2023/07/30 11:58:12;;;;;;;10.73;10.23;;;30.70;38.00;;;;;;5038527;28;20886;-52
2023/07/30 12:00:43;;;;;;;9.97;9.57;;;30.60;39.90;;;;;;5038704;28;20416;-49
2023/07/30 12:03:11;;;;;;;9.53;9.13;;;30.60;40.00;;;;;;5038780;28;20443;-50
2023/07/30 12:05:38;;;;;;;8.90;8.60;;;31.00;39.60;;;;;;5015887;28;20452;-54
2023/07/30 12:08:07;;;;;;;9.27;8.87;;;31.20;36.80;;;;;;5037367;28;20738;-50
2023/07/30 12:10:47;;;;;;;8.20;7.90;;;31.50;37.40;;;;;;5037601;28;20477;-52
2023/07/30 12:13:18;;;;;;;9.30;9.00;;;31.90;37.00;;;;;;5038804;28;20775;-48
2023/07/30 12:15:53;;;;;;;9.20;8.80;;;31.20;35.50;;;;;;5037178;28;20467;-51
2023/07/30 12:18:20;;;;;;;9.63;9.27;;;30.90;36.60;;;;;;5034793;28;20495;-46
2023/07/30 12:20:46;;;;;;;9.77;9.37;;;31.10;37.90;;;;;;5055165;28;20816;-49
2023/07/30 12:23:12;;;;;;;10.90;10.50;;;31.70;38.50;;;;;;5038337;28;20412;-50
2023/07/30 12:25:38;;;;;;;10.30;9.90;;;32.50;35.50;;;;;;5037681;28;20432;-51
2023/07/30 12:28:04;;;;;;;10.63;10.23;;;32.60;33.90;;;;;;5036439;28;20209;-47